Time;durP1;ratioP1;P1;durP2;ratioP2;P2;SDS_P1;SDS_P2;PMS_P1;PMS_P2;Temp;Humidity;BMP_temperature;BMP_pressure;BME280_temperature;BME280_humidity;BME280_pressure;Samples;Min_cycle;Max_cycle;Signal;HPM_P1;HPM_P2
2023/06/03 00:01:56;;;;;;;;;;;;;;;22.45;79.51;102003.22;5062789;28;19947;-56
2023/06/03 00:04:29;;;;;;;;;;;;;;;;;;5062427;28;19925;-53
2023/06/03 00:06:55;;;;;;;;;;;;;;;22.25;80.35;102002.88;5055909;28;19913;-54
2023/06/03 00:09:20;;;;;;;;;;;;;;;22.28;79.35;102013.28;5055851;28;19997;-53
2023/06/03 00:11:45;;;;;;;;;;;;;;;22.39;77.81;102015.13;5061843;28;19976;-52
2023/06/03 00:14:11;;;;;;;;;;;;;;;22.47;76.76;102019.34;5057943;28;19917;-54
2023/06/03 00:16:36;;;;;;;;;;;;;;;22.40;76.79;102018.66;5059778;28;20000;-56
2023/06/03 00:19:01;;;;;;;;;;;;;;;22.41;76.49;102020.31;5058041;28;19904;-53
2023/06/03 00:21:30;;;;;;;;;;;;;;;22.35;76.24;102020.22;5060979;28;19977;-55
2023/06/03 00:23:55;;;;;;;;;;;;;;;22.36;75.64;102015.59;5055354;28;19913;-55
2023/06/03 00:26:22;;;;;;;;;;;;;;;22.30;75.11;102011.97;5055247;28;19979;-53
2023/06/03 00:28:53;;;;;;;;;;;;;;;22.19;75.35;102012.84;5060354;28;19992;-54
2023/06/03 00:31:19;;;;;;;;;;;;;;;22.13;75.65;102022.00;5038159;28;19905;-54
2023/06/03 00:33:44;;;;;;;;;;;;;;;22.05;75.88;102015.91;5057944;28;19939;-55
2023/06/03 00:36:10;;;;;;;;;;;;;;;22.06;76.00;102016.72;5058098;28;19920;-52
2023/06/03 00:38:37;;;;;;;;;;;;;;;22.49;73.55;102006.31;5041063;28;19944;-55
2023/06/03 00:41:03;;;;;;;;;;;;;;;21.96;75.32;102011.09;5057991;28;19980;-56
2023/06/03 00:43:28;;;;;;;;;;;;;;;21.80;75.89;102013.50;5055208;28;19897;-53
2023/06/03 00:45:54;;;;;;;;;;;;;;;21.82;75.72;102016.00;5057511;28;19913;-56
2023/06/03 00:48:19;;;;;;;;;;;;;;;21.96;74.69;102011.91;5039215;28;19948;-54
2023/06/03 00:50:45;;;;;;;;;;;;;;;21.90;74.79;102013.69;5063197;28;20399;-54
2023/06/03 00:53:10;;;;;;;;;;;;;;;21.95;74.09;102021.13;5060032;28;19921;-54
2023/06/03 00:55:37;;;;;;;;;;;;;;;21.84;74.70;102014.66;5042506;28;19936;-51
2023/06/03 00:58:02;;;;;;;;;;;;;;;21.84;74.27;102014.66;5064729;28;19912;-55
2023/06/03 01:00:28;;;;;;;;;;;;;;;21.82;73.83;102014.09;5059415;28;19921;-54
2023/06/03 01:02:55;;;;;;;;;;;;;;;21.80;73.45;102018.13;5062318;28;19916;-54
2023/06/03 01:05:21;;;;;;;;;;;;;;;21.82;73.29;102011.38;5039902;28;19921;-52
2023/06/03 01:07:56;;;;;;;;;;;;;;;21.65;73.84;102007.75;5059547;28;19951;-56
2023/06/03 01:10:22;;;;;;;;;;;;;;;21.69;73.80;102017.13;5041515;28;19943;-51
2023/06/03 01:13:01;;;;;;;;;;;;;;;21.53;74.17;102016.78;5058007;28;19956;-54
2023/06/03 01:15:28;;;;;;;;;;;;;;;21.55;74.09;102017.34;5040146;28;19913;-52
2023/06/03 01:17:57;;;;;;;;;;;;;;;21.45;74.10;102017.13;5040991;28;19917;-54
2023/06/03 01:20:26;;;;;;;;;;;;;;;21.42;74.17;102014.88;5041694;28;19917;-52
2023/06/03 01:22:56;;;;;;;;;;;;;;;21.51;73.65;102010.75;5059718;28;19965;-53
2023/06/03 01:25:23;;;;;;;;;;;;;;;21.41;73.68;102005.91;5060054;28;19960;-51
2023/06/03 01:27:51;;;;;;;;;;;;;;;21.30;74.18;102013.03;5057576;28;19913;-54
2023/06/03 01:30:18;;;;;;;;;;;;;;;21.31;73.72;102009.25;5058334;28;19924;-53
2023/06/03 01:32:44;;;;;;;;;;;;;;;21.30;73.90;102009.47;5039309;28;19924;-52
2023/06/03 01:35:11;;;;;;;;;;;;;;;21.41;73.34;102016.81;5057828;28;19913;-55
2023/06/03 01:37:39;;;;;;;;;;;;;;;21.31;73.31;102016.56;5037701;28;19972;-54
2023/06/03 01:40:04;;;;;;;;;;;;;;;21.31;73.78;102016.56;5039983;28;19944;-52
2023/06/03 01:42:33;;;;;;;;;;;;;;;21.35;73.86;102006.88;5039359;28;19972;-51
2023/06/03 01:45:03;;;;;;;;;;;;;;;21.26;73.30;102009.16;5038858;28;19913;-56
2023/06/03 01:47:29;;;;;;;;;;;;;;;21.26;73.23;102008.31;5034677;28;19913;-51
2023/06/03 01:49:55;;;;;;;;;;;;;;;21.08;73.80;102012.00;5036624;28;19941;-52
2023/06/03 01:52:20;;;;;;;;;;;;;;;21.23;72.81;102011.50;5039507;28;19928;-54
2023/06/03 01:54:46;;;;;;;;;;;;;;;21.08;73.27;102015.53;5039001;28;19919;-54
2023/06/03 01:57:11;;;;;;;;;;;;;;;21.02;73.92;102017.34;5039182;28;19912;-57
2023/06/03 01:59:38;;;;;;;;;;;;;;;20.99;73.62;102020.53;5036562;28;19944;-54
2023/06/03 02:02:03;;;;;;;;;;;;;;;20.90;74.62;102019.22;5046385;28;19923;-54
2023/06/03 02:04:28;;;;;;;;;;;;;;;20.88;74.72;102019.47;5056984;28;19922;-51
2023/06/03 02:06:55;;;;;;;;;;;;;;;20.99;73.38;102015.09;5060226;28;19944;-51
2023/06/03 02:09:21;;;;;;;;;;;;;;;20.91;73.75;102018.16;5040105;28;19917;-56
2023/06/03 02:11:47;;;;;;;;;;;;;;;20.85;73.77;102019.91;5043737;28;19928;-52
2023/06/03 02:14:13;;;;;;;;;;;;;;;20.90;73.82;102016.50;5060434;28;19920;-53
2023/06/03 02:16:40;;;;;;;;;;;;;;;20.95;72.81;102015.78;5036316;28;19917;-55
2023/06/03 02:19:10;;;;;;;;;;;;;;;21.05;72.24;102005.13;5056418;28;20378;-54
2023/06/03 02:21:36;;;;;;;;;;;;;;;20.89;72.88;102006.69;5056008;28;19928;-56
2023/06/03 02:24:02;;;;;;;;;;;;;;;20.94;72.39;102003.25;5041362;28;19984;-53
2023/06/03 02:26:28;;;;;;;;;;;;;;;20.87;72.17;102000.66;5058500;28;19913;-53
2023/06/03 02:28:53;;;;;;;;;;;;;;;20.87;72.20;102006.09;5038535;28;19905;-52
2023/06/03 02:31:19;;;;;;;;;;;;;;;20.90;71.67;102006.47;5061130;28;19976;-54
2023/06/03 02:33:45;;;;;;;;;;;;;;;20.81;71.50;101998.88;5053697;28;19952;-54
2023/06/03 02:36:11;;;;;;;;;;;;;;;20.70;71.95;101995.88;5060101;28;19924;-54
2023/06/03 02:38:38;;;;;;;;;;;;;;;20.80;71.44;101999.97;5037317;28;19942;-49
2023/06/03 02:41:04;;;;;;;;;;;;;;;20.81;70.81;101999.69;5058298;28;19935;-50
2023/06/03 02:43:29;;;;;;;;;;;;;;;20.71;70.73;102000.25;5031820;28;19948;-53
2023/06/03 02:45:55;;;;;;;;;;;;;;;20.75;70.18;102000.63;5061621;28;19920;-51
2023/06/03 02:48:21;;;;;;;;;;;;;;;20.68;70.17;101999.91;5039203;28;19913;-54
2023/06/03 02:50:47;;;;;;;;;;;;;;;20.62;70.14;101998.97;5043851;28;19923;-51
2023/06/03 02:53:13;;;;;;;;;;;;;;;20.67;69.54;102000.97;5058449;28;19913;-51
2023/06/03 02:55:38;;;;;;;;;;;;;;;20.43;69.86;102001.78;5042742;28;19935;-52
2023/06/03 02:58:04;;;;;;;;;;;;;;;20.46;69.77;102006.72;5057903;28;19917;-53
2023/06/03 03:00:30;;;;;;;;;;;;;;;20.43;69.81;102009.91;5064904;28;19912;-52
2023/06/03 03:02:55;;;;;;;;;;;;;;;20.32;70.14;102008.03;5059686;28;19920;-56
2023/06/03 03:05:23;;;;;;;;;;;;;;;20.39;69.54;102006.03;5044799;28;19928;-51
2023/06/03 03:07:49;;;;;;;;;;;;;;;20.30;69.57;101997.38;5042030;28;19913;-55
2023/06/03 03:10:15;;;;;;;;;;;;;;;20.27;70.05;102007.88;5044172;28;19927;-55
2023/06/03 03:12:41;;;;;;;;;;;;;;;19.86;71.06;102008.44;5041891;28;19917;-53
2023/06/03 03:15:07;;;;;;;;;;;;;;;19.84;71.62;102010.56;5041725;28;19913;-53
2023/06/03 03:17:34;;;;;;;;;;;;;;;19.87;71.54;102007.38;5043685;28;19964;-53
2023/06/03 03:20:02;;;;;;;;;;;;;;;19.74;71.75;102015.69;5059279;28;19913;-52
2023/06/03 03:22:28;;;;;;;;;;;;;;;19.74;71.93;102012.97;5039265;28;20295;-53
2023/06/03 03:24:57;;;;;;;;;;;;;;;19.68;71.69;102020.13;5044105;28;19913;-57
2023/06/03 03:27:25;;;;;;;;;;;;;;;19.72;71.41;102021.34;5039861;28;19913;-51
2023/06/03 03:29:53;;;;;;;;;;;;;;;19.72;70.93;102013.22;5043775;28;19916;-53
2023/06/03 03:32:19;;;;;;;;;;;;;;;19.74;71.00;102011.09;5041950;28;19924;-56
2023/06/03 03:34:53;;;;;;;;;;;;;;;19.70;71.09;102020.72;5061510;28;19928;-54
2023/06/03 03:37:18;;;;;;;;;;;;;;;19.66;70.81;102007.88;5065558;28;20010;-55
2023/06/03 03:39:46;;;;;;;;;;;;;;;19.61;70.74;102014.81;5060228;28;19913;-50
2023/06/03 03:42:12;;;;;;;;;;;;;;;19.61;70.91;102022.09;5043143;28;19913;-52
2023/06/03 03:44:39;;;;;;;;;;;;;;;19.52;70.70;102016.16;5043785;28;19921;-53
2023/06/03 03:47:06;;;;;;;;;;;;;;;19.55;70.37;102023.84;5041707;28;19913;-53
2023/06/03 03:49:34;;;;;;;;;;;;;;;19.52;70.57;102026.19;5042521;28;19925;-51
2023/06/03 03:52:04;;;;;;;;;;;;;;;19.54;69.92;102024.88;5037314;28;19913;-51
2023/06/03 03:54:30;;;;;;;;;;;;;;;19.53;70.07;102035.97;5043596;28;19975;-50
2023/06/03 03:56:56;;;;;;;;;;;;;;;19.50;69.93;102031.84;5042498;28;19913;-52
2023/06/03 03:59:26;;;;;;;;;;;;;;;19.41;70.01;102027.78;5035942;28;19912;-51
2023/06/03 04:01:51;;;;;;;;;;;;;;;19.55;69.57;102023.84;5036332;28;19949;-52
2023/06/03 04:04:35;;;;;;;;;;;;;;;19.48;69.72;102028.53;5059737;28;19927;-56
2023/06/03 04:07:01;;;;;;;;;;;;;;;19.45;69.71;102032.50;5059756;28;19917;-53
2023/06/03 04:09:26;;;;;;;;;;;;;;;19.47;69.28;102024.16;5040190;28;19924;-52
2023/06/03 04:11:52;;;;;;;;;;;;;;;19.38;69.47;102023.63;5043318;28;19944;-53
2023/06/03 04:14:27;;;;;;;;;;;;;;;19.53;68.70;102025.94;5042033;28;19912;-51
2023/06/03 04:16:56;;;;;;;;;;;;;;;19.49;69.23;102028.31;5057762;28;19912;-53
2023/06/03 04:19:32;;;;;;;;;;;;;;;19.41;69.43;102027.78;5039945;28;19913;-51
2023/06/03 04:22:06;;;;;;;;;;;;;;;19.29;69.88;102036.66;5059356;28;19913;-53
2023/06/03 04:24:33;;;;;;;;;;;;;;;19.32;70.03;102036.19;5057487;28;19924;-51
2023/06/03 04:27:03;;;;;;;;;;;;;;;19.68;68.05;102038.31;5035796;28;19913;-54
2023/06/03 04:29:30;;;;;;;;;;;;;;;19.19;70.00;102037.16;5042738;28;19917;-53
2023/06/03 04:31:55;;;;;;;;;;;;;;;19.28;69.82;102039.59;5037943;28;19977;-56
2023/06/03 04:34:26;;;;;;;;;;;;;;;19.23;70.17;102039.41;5035893;28;19924;-55
2023/06/03 04:36:51;;;;;;;;;;;;;;;19.18;70.50;102037.41;5056264;28;19928;-55
2023/06/03 04:39:17;;;;;;;;;;;;;;;19.27;70.03;102032.53;5040064;28;19912;-57
2023/06/03 04:41:43;;;;;;;;;;;;;;;19.34;69.04;102039.50;5045486;28;19936;-57
2023/06/03 04:44:11;;;;;;;;;;;;;;;19.37;68.65;102031.97;5057326;28;19976;-55
2023/06/03 04:46:37;;;;;;;;;;;;;;;19.43;68.14;102040.03;5040314;28;20021;-55
2023/06/03 04:49:03;;;;;;;;;;;;;;;19.49;67.11;102041.88;5064060;28;19920;-54
2023/06/03 04:51:33;;;;;;;;;;;;;;;19.49;66.59;102046.44;5042684;28;19924;-50
2023/06/03 04:54:00;;;;;;;;;;;;;;;19.45;66.64;102043.34;5044974;28;19920;-56
2023/06/03 04:56:28;;;;;;;;;;;;;;;19.50;66.81;102037.25;5037443;28;19917;-54
2023/06/03 04:59:03;;;;;;;;;;;;;;;19.68;65.94;102038.31;5037852;28;19913;-52
2023/06/03 05:01:32;;;;;;;;;;;;;;;19.79;65.01;102040.25;5039824;28;19924;-52
2023/06/03 05:03:57;;;;;;;;;;;;;;;19.68;65.12;102049.16;5039528;28;19912;-54
2023/06/03 05:06:23;;;;;;;;;;;;;;;19.84;64.53;102032.25;5039122;28;19913;-50
2023/06/03 05:08:50;;;;;;;;;;;;;;;19.97;63.75;102038.59;5059678;28;19932;-54
2023/06/03 05:11:18;;;;;;;;;;;;;;;19.82;63.47;102045.22;5056204;28;19925;-54
2023/06/03 05:13:45;;;;;;;;;;;;;;;19.63;63.72;102047.97;5036970;28;19913;-50
2023/06/03 05:16:11;;;;;;;;;;;;;;;19.82;62.70;102039.78;5043190;28;19948;-53
2023/06/03 05:18:41;;;;;;;;;;;;;;;19.75;62.33;102039.03;5040605;28;19931;-56
2023/06/03 05:21:07;;;;;;;;;;;;;;;19.82;62.12;102047.13;5034420;28;19991;-55
2023/06/03 05:23:33;;;;;;;;;;;;;;;20.00;61.55;102035.41;5038755;28;19965;-53
2023/06/03 05:25:59;;;;;;;;;;;;;;;20.13;60.68;102053.41;5038050;28;19912;-54
2023/06/03 05:28:25;;;;;;;;;;;;;;;20.22;60.16;102041.19;5039024;28;19913;-54
2023/06/03 05:30:51;;;;;;;;;;;;;;;20.17;59.53;102039.16;5036868;28;19921;-53
2023/06/03 05:33:24;;;;;;;;;;;;;;;20.20;59.43;102035.97;5054033;28;19913;-53
2023/06/03 05:35:50;;;;;;;;;;;;;;;20.24;59.32;102040.94;5036759;28;19971;-55
2023/06/03 05:38:16;;;;;;;;;;;;;;;20.25;59.06;102045.28;5059217;28;19917;-54
2023/06/03 05:40:41;;;;;;;;;;;;;;;20.39;58.49;102046.78;5039632;28;19916;-55
2023/06/03 05:43:07;;;;;;;;;;;;;;;20.36;58.65;102052.66;5056789;28;19913;-55
2023/06/03 05:45:32;;;;;;;;;;;;;;;20.42;58.29;102050.91;5039113;28;19928;-55
2023/06/03 05:47:58;;;;;;;;;;;;;;;20.49;57.82;102049.72;5044026;28;19960;-56
2023/06/03 05:50:24;;;;;;;;;;;;;;;20.44;57.69;102055.03;5032928;28;19917;-54
2023/06/03 05:52:55;;;;;;;;;;;;;;;20.52;57.60;102053.03;5037929;28;19924;-54
2023/06/03 05:55:20;;;;;;;;;;;;;;;20.74;56.95;102056.06;5038292;28;19935;-55
2023/06/03 05:57:46;;;;;;;;;;;;;;;20.80;57.13;102057.03;5056439;28;19932;-54
2023/06/03 06:00:11;;;;;;;;;;;;;;;20.90;57.06;102062.72;5039782;28;19927;-57
2023/06/03 06:02:40;;;;;;;;;;;;;;;20.86;56.47;102058.81;5059023;28;19955;-55
2023/06/03 06:05:08;;;;;;;;;;;;;;;20.87;56.42;102055.03;5043280;28;19952;-52
2023/06/03 06:07:33;;;;;;;;;;;;;;;20.78;56.29;102058.06;5059618;28;19920;-51
2023/06/03 06:09:58;;;;;;;;;;;;;;;21.05;54.99;102056.81;5053384;28;19917;-54
2023/06/03 06:12:24;;;;;;;;;;;;;;;21.15;54.54;102054.34;5053809;28;20338;-54
2023/06/03 06:14:50;;;;;;;;;;;;;;;21.13;54.34;102055.63;5058577;28;19912;-52
2023/06/03 06:17:16;;;;;;;;;;;;;;;21.12;53.83;102059.41;5036242;28;19919;-56
2023/06/03 06:19:42;;;;;;;;;;;;;;;21.39;53.81;102058.91;5058490;28;19913;-51
2023/06/03 06:22:08;;;;;;;;;;;;;;;21.31;53.02;102055.50;5038565;28;20019;-52
2023/06/03 06:24:33;;;;;;;;;;;;;;;21.46;52.64;102052.28;5040416;28;19935;-53
2023/06/03 06:26:59;;;;;;;;;;;;;;;21.48;51.94;102058.31;5048415;28;19935;-49
2023/06/03 06:29:26;;;;;;;;;;;;;;;21.66;51.43;102055.69;5061185;28;19912;-53
2023/06/03 06:31:51;;;;;;;;;;;;;;;21.86;50.76;102068.91;5041846;28;19917;-51
2023/06/03 06:34:17;;;;;;;;;;;;;;;21.60;50.30;102069.16;5046220;28;19985;-53
2023/06/03 06:36:49;;;;;;;;;;;;;;;21.72;50.59;102068.34;5039943;28;19940;-52
2023/06/03 06:39:25;;;;;;;;;;;;;;;21.88;50.64;102070.28;5057986;28;19913;-51
2023/06/03 06:41:50;;;;;;;;;;;;;;;21.81;49.58;102069.63;5059181;28;20016;-49
2023/06/03 06:44:16;;;;;;;;;;;;;;;21.92;49.33;102071.50;5059652;28;19913;-52
2023/06/03 06:46:41;;;;;;;;;;;;;;;21.99;49.08;102073.22;5042512;28;19967;-53
2023/06/03 06:49:08;;;;;;;;;;;;;;;22.00;48.45;102075.69;5042597;28;19919;-52
2023/06/03 06:51:36;;;;;;;;;;;;;;;21.93;48.17;102066.84;5039804;28;19939;-54
2023/06/03 06:54:04;;;;;;;;;;;;;;;22.36;47.95;102067.34;5037108;28;19913;-51
2023/06/03 06:56:29;;;;;;;;;;;;;;;22.51;46.73;102071.47;5058999;28;19948;-54
2023/06/03 06:58:58;;;;;;;;;;;;;;;22.55;47.21;102069.91;5042886;28;19913;-53
2023/06/03 07:01:24;;;;;;;;;;;;;;;22.65;46.56;102067.34;5041543;28;19913;-52
2023/06/03 07:03:54;;;;;;;;;;;;;;;22.65;47.67;102072.81;5040083;28;19920;-51
2023/06/03 07:06:19;;;;;;;;;;;;;;;22.70;46.32;102075.63;5041962;28;19913;-51
2023/06/03 07:08:48;;;;;;;;;;;;;;;22.63;45.77;102072.22;5042448;28;19924;-54
2023/06/03 07:11:16;;;;;;;;;;;;;;;22.88;45.31;102065.53;5044057;28;19925;-53
2023/06/03 07:13:53;;;;;;;;;;;;;;;22.90;45.67;102074.28;5061641;28;19939;-54
2023/06/03 07:16:19;;;;;;;;;;;;;;;23.13;45.20;102077.91;5046860;28;19913;-54
2023/06/03 07:18:44;;;;;;;;;;;;;;;23.06;45.41;102073.44;5061676;28;19913;-51
2023/06/03 07:21:11;;;;;;;;;;;;;;;23.10;45.02;102071.03;5058947;28;19984;-53
2023/06/03 07:23:37;;;;;;;;;;;;;;;23.32;45.08;102079.31;5045302;28;19916;-56
2023/06/03 07:26:04;;;;;;;;;;;;;;;23.33;46.17;102080.13;5042654;28;19940;-52
2023/06/03 07:28:33;;;;;;;;;;;;;;;23.37;44.89;102072.25;5041720;28;19917;-56
2023/06/03 07:31:05;;;;;;;;;;;;;;;23.53;43.91;102074.13;5046458;28;19917;-52
2023/06/03 07:33:34;;;;;;;;;;;;;;;23.67;44.04;102079.19;5044284;28;19935;-52
2023/06/03 07:36:02;;;;;;;;;;;;;;;23.79;43.38;102079.91;5041493;28;19913;-52
2023/06/03 07:38:31;;;;;;;;;;;;;;;23.68;43.68;102083.56;5046416;28;19979;-52
2023/06/03 07:40:57;;;;;;;;;;;;;;;23.73;43.31;102083.63;5043573;28;19928;-53
2023/06/03 07:43:22;;;;;;;;;;;;;;;24.00;42.94;102091.06;5043549;28;19984;-53
2023/06/03 07:45:48;;;;;;;;;;;;;;;24.34;41.89;102090.88;5061560;28;19913;-53
2023/06/03 07:48:14;;;;;;;;;;;;;;;24.26;42.39;102086.69;5058284;28;19916;-52
2023/06/03 07:50:40;;;;;;;;;;;;;;;23.98;42.15;102088.56;5055842;28;19976;-53
2023/06/03 07:53:05;;;;;;;;;;;;;;;23.95;42.09;102090.97;5057217;28;19945;-54
2023/06/03 07:55:39;;;;;;;;;;;;;;;24.32;41.20;102093.06;5061362;28;19936;-50
2023/06/03 07:58:05;;;;;;;;;;;;;;;24.32;40.63;102098.53;5058528;28;19948;-56
2023/06/03 08:00:30;;;;;;;;;;;;;;;24.32;41.23;102098.53;5058266;28;19913;-52
2023/06/03 08:02:56;;;;;;;;;;;;;;;24.43;40.82;102103.00;5056310;28;19935;-50
2023/06/03 08:05:29;;;;;;;;;;;;;;;24.66;40.15;102094.72;5058434;28;19988;-55
2023/06/03 08:07:54;;;;;;;;;;;;;;;24.52;40.56;102102.53;5057225;28;19935;-53
2023/06/03 08:10:22;;;;;;;;;;;;;;;24.44;40.38;102099.16;5060835;28;19921;-54
2023/06/03 08:12:47;;;;;;;;;;;;;;;24.52;39.90;102097.06;5061090;28;19928;-54
2023/06/03 08:15:25;;;;;;;;;;;;;;;24.77;37.96;102089.09;5057948;28;19913;-56
2023/06/03 08:17:51;;;;;;;;;;;;;;;24.61;38.33;102096.34;5058145;28;19909;-54
2023/06/03 08:20:21;;;;;;;;;;;;;;;24.66;38.88;102102.94;5055235;28;19913;-52
2023/06/03 08:22:47;;;;;;;;;;;;;;;24.88;36.65;102095.47;5058020;28;19920;-51
2023/06/03 08:25:13;;;;;;;;;;;;;;;24.97;37.41;102095.81;5060335;28;19913;-54
2023/06/03 08:27:39;;;;;;;;;;;;;;;24.99;37.72;102090.91;5060375;28;19921;-57
2023/06/03 08:30:04;;;;;;;;;;;;;;;25.15;38.17;102099.22;5061725;28;19917;-54
2023/06/03 08:32:32;;;;;;;;;;;;;;;25.26;36.86;102100.94;5040822;28;19968;-54
2023/06/03 08:34:58;;;;;;;;;;;;;;;25.47;36.64;102101.88;5062154;28;19921;-53
2023/06/03 08:37:24;;;;;;;;;;;;;;;25.37;37.10;102090.00;5041430;28;19917;-55
2023/06/03 08:39:50;;;;;;;;;;;;;;;25.45;36.49;102090.34;5046038;28;19940;-56
2023/06/03 08:42:19;;;;;;;;;;;;;;;25.19;35.67;102086.66;5063302;28;19912;-53
2023/06/03 08:44:48;;;;;;;;;;;;;;;25.11;35.35;102077.03;5057620;28;19897;-55
2023/06/03 08:47:20;;;;;;;;;;;;;;;25.35;35.64;102087.56;5056435;28;19912;-56
2023/06/03 08:49:54;;;;;;;;;;;;;;;25.03;34.56;102080.28;5050273;28;19917;-56
2023/06/03 08:52:22;;;;;;;;;;;;;;;25.35;34.94;102071.13;5057294;28;19920;-53
2023/06/03 08:54:48;;;;;;;;;;;;;;;24.87;35.79;102082.06;5056946;28;19921;-56
2023/06/03 08:57:19;;;;;;;;;;;;;;;25.13;35.26;102083.06;5056857;28;19909;-53
2023/06/03 08:59:46;;;;;;;;;;;;;;;25.44;34.70;102074.19;5053624;28;19913;-52
2023/06/03 09:02:13;;;;;;;;;;;;;;;25.47;34.92;102079.97;5054579;28;19972;-51
2023/06/03 09:04:39;;;;;;;;;;;;;;;25.04;35.15;102076.44;5054193;28;19913;-52
2023/06/03 09:07:05;;;;;;;;;;;;;;;25.25;34.66;102074.63;5056475;28;19913;-52
2023/06/03 09:09:30;;;;;;;;;;;;;;;25.25;35.93;102071.06;5056408;28;19924;-54
2023/06/03 09:11:56;;;;;;;;;;;;;;;25.25;35.13;102071.06;5056731;28;19917;-52
2023/06/03 09:14:23;;;;;;;;;;;;;;;25.67;33.26;102075.69;5057036;28;19939;-53
2023/06/03 09:16:48;;;;;;;;;;;;;;;25.99;35.23;102066.47;5058325;28;19913;-51
2023/06/03 09:19:14;;;;;;;;;;;;;;;26.32;33.60;102077.25;5058852;28;19917;-53
2023/06/03 09:21:41;;;;;;;;;;;;;;;26.36;34.53;102072.03;5056362;28;19913;-55
2023/06/03 09:24:07;;;;;;;;;;;;;;;26.46;33.92;102086.56;5057104;28;19921;-55
2023/06/03 09:26:32;;;;;;;;;;;;;;;26.54;34.05;102089.88;5055971;28;19952;-56
2023/06/03 09:28:58;;;;;;;;;;;;;;;26.96;34.15;102093.44;5059340;28;19913;-52
2023/06/03 09:31:24;;;;;;;;;;;;;;;27.09;33.92;102094.78;5056021;28;19924;-52
2023/06/03 09:33:50;;;;;;;;;;;;;;;27.37;32.18;102087.00;5055330;28;19917;-53
2023/06/03 09:36:17;;;;;;;;;;;;;;;27.17;32.79;102086.81;5055879;28;19912;-55
2023/06/03 09:38:47;;;;;;;;;;;;;;;27.58;31.56;102094.13;5055403;28;19913;-56
2023/06/03 09:41:16;;;;;;;;;;;;;;;28.51;30.68;102097.44;5056509;28;19936;-56
2023/06/03 09:43:54;;;;;;;;;;;;;;;28.67;30.89;102093.44;5057840;28;19982;-56
2023/06/03 09:46:19;;;;;;;;;;;;;;;29.44;30.14;102085.53;5054424;28;19917;-54
2023/06/03 09:48:45;;;;;;;;;;;;;;;29.92;29.30;102087.41;5056991;28;19913;-55
2023/06/03 09:51:10;;;;;;;;;;;;;;;30.50;28.69;102084.59;5056288;28;19947;-55
2023/06/03 09:53:37;;;;;;;;;;;;;;;31.21;28.65;102098.28;5055874;28;19916;-56
2023/06/03 09:56:22;;;;;;;;;;;;;;;31.09;28.30;102100.69;5057074;28;19913;-56
2023/06/03 09:58:50;;;;;;;;;;;;;;;32.12;27.16;102103.25;5059275;28;19940;-54
2023/06/03 10:01:18;;;;;;;;;;;;;;;32.37;26.32;102095.50;5056116;28;19923;-52
2023/06/03 10:03:56;;;;;;;;;;;;;;;32.77;26.50;102092.81;5056084;28;19940;-54
2023/06/03 10:06:22;;;;;;;;;;;;;;;33.12;26.06;102093.00;5059351;28;19963;-54
2023/06/03 10:08:47;;;;;;;;;;;;;;;33.57;26.00;102097.53;5061487;28;19913;-56
2023/06/03 10:11:13;;;;;;;;;;;;;;;34.13;24.09;102098.91;5054728;28;19948;-55
2023/06/03 10:13:38;;;;;;;;;;;;;;;33.83;23.99;102102.31;5053385;28;19920;-56
2023/06/03 10:16:09;;;;;;;;;;;;;;;34.64;23.57;102101.97;5051394;28;19972;-56
2023/06/03 10:18:38;;;;;;;;;;;;;;;34.89;22.73;102097.44;5057445;28;19920;-56
2023/06/03 10:21:13;;;;;;;;;;;;;;;34.82;23.45;102104.66;5055004;28;19912;-56
2023/06/03 10:23:40;;;;;;;;;;;;;;;35.05;22.98;102113.59;5057050;28;19936;-55
2023/06/03 10:26:06;;;;;;;;;;;;;;;35.80;21.12;102101.06;5054041;28;19915;-56
2023/06/03 10:28:32;;;;;;;;;;;;;;;36.16;21.57;102105.19;5055258;28;19921;-56
2023/06/03 10:30:59;;;;;;;;;;;;;;;35.60;22.52;102099.91;5054005;28;19975;-54
2023/06/03 10:33:25;;;;;;;;;;;;;;;36.32;21.45;102104.56;5053381;28;19921;-55
2023/06/03 10:35:51;;;;;;;;;;;;;;;36.31;20.41;102114.06;5057008;28;19921;-55
2023/06/03 10:38:17;;;;;;;;;;;;;;;36.71;19.97;102109.91;5055216;28;19997;-53
2023/06/03 10:40:42;;;;;;;;;;;;;;;36.82;19.86;102099.13;5054471;28;19913;-58
2023/06/03 10:43:09;;;;;;;;;;;;;;;36.81;19.24;102103.91;5059744;28;19943;-55
2023/06/03 10:45:35;;;;;;;;;;;;;;;36.76;20.26;102098.53;5056269;28;19913;-57
2023/06/03 10:48:07;;;;;;;;;;;;;;;37.36;20.56;102103.69;5056789;28;19919;-58
2023/06/03 10:50:47;;;;;;;;;;;;;;;38.33;18.90;102104.94;5056516;28;19917;-55
2023/06/03 10:53:31;;;;;;;;;;;;;;;38.41;18.77;102098.34;5056926;28;19980;-57
2023/06/03 10:56:27;;;;;;;;;;;;;;;38.47;17.63;102104.53;5058210;28;19943;-56
2023/06/03 10:59:02;;;;;;;;;;;;;;;38.97;18.76;102101.41;5034310;28;19917;-54
2023/06/03 11:01:47;;;;;;;;;;;;;;;39.04;17.78;102089.56;5055010;28;19912;-56
2023/06/03 11:04:16;;;;;;;;;;;;;;;39.19;18.76;102097.09;5053470;28;19924;-57
2023/06/03 11:06:41;;;;;;;;;;;;;;;39.47;16.56;102096.19;5048352;28;19972;-56
2023/06/03 11:09:15;;;;;;;;;;;;;;;39.63;16.76;102096.13;5053110;28;19913;-54
2023/06/03 11:11:41;;;;;;;;;;;;;;;39.93;17.54;102086.34;5057728;28;19917;-54
2023/06/03 11:14:10;;;;;;;;;;;;;;;40.22;16.69;102101.69;5059000;28;19932;-57
2023/06/03 11:16:54;;;;;;;;;;;;;;;40.88;16.88;102109.28;5058348;28;19927;-57
2023/06/03 11:19:26;;;;;;;;;;;;;;;41.34;15.29;102105.59;5060420;28;19943;-58
2023/06/03 11:21:52;;;;;;;;;;;;;;;40.99;16.55;102103.84;5061145;28;19975;-59
2023/06/03 11:24:36;;;;;;;;;;;;;;;41.40;15.35;102106.06;5057146;28;19961;-59
2023/06/03 11:27:19;;;;;;;;;;;;;;;41.55;14.56;102112.66;5055739;28;19916;-59
2023/06/03 11:32:23;;;;;;;;;;;;;;;42.16;15.17;102104.22;5055482;28;19934;-58
2023/06/03 11:34:50;;;;;;;;;;;;;;;42.53;14.81;102105.38;5057119;28;19995;-58
2023/06/03 11:37:19;;;;;;;;;;;;;;;42.83;14.69;102104.41;5055997;28;19909;-58
2023/06/03 11:39:59;;;;;;;;;;;;;;;42.64;15.63;102103.47;5054524;28;19987;-57
2023/06/03 11:42:24;;;;;;;;;;;;;;;42.63;15.18;102107.47;5052150;28;20019;-59
2023/06/03 11:44:50;;;;;;;;;;;;;;;42.39;14.43;102098.41;5058049;28;20415;-57
2023/06/03 11:47:15;;;;;;;;;;;;;;;42.20;14.34;102112.66;5054632;28;19972;-57
2023/06/03 11:49:41;;;;;;;;;;;;;;;42.47;15.46;102107.75;5053432;28;19920;-60
2023/06/03 11:52:07;;;;;;;;;;;;;;;42.54;14.66;102109.81;5057576;28;19987;-59
2023/06/03 11:54:34;;;;;;;;;;;;;;;42.52;14.01;102109.41;5056260;28;19917;-56
2023/06/03 11:57:02;;;;;;;;;;;;;;;43.25;15.25;102111.56;5056737;28;19909;-60
2023/06/03 11:59:32;;;;;;;;;;;;;;;43.35;14.14;102103.56;5058759;28;19920;-60
2023/06/03 12:02:03;;;;;;;;;;;;;;;43.45;13.83;102099.19;5052960;28;19980;-56
2023/06/03 12:04:28;;;;;;;;;;;;;;;43.52;14.13;102094.41;5055864;28;19936;-60
2023/06/03 12:06:55;;;;;;;;;;;;;;;44.58;13.11;102089.88;5056563;28;19917;-60
2023/06/03 12:09:21;;;;;;;;;;;;;;;44.90;12.24;102089.00;5054318;28;19975;-57
2023/06/03 12:11:47;;;;;;;;;;;;;;;45.01;13.21;102096.69;5060916;28;19941;-60
2023/06/03 12:14:24;;;;;;;;;;;;;;;44.33;12.87;102092.66;5057657;28;20018;-59
2023/06/03 12:16:50;;;;;;;;;;;;;;;44.54;13.38;102084.22;5055587;28;19920;-60
2023/06/03 12:19:16;;;;;;;;;;;;;;;44.15;13.33;102084.97;5062452;28;19924;-58
2023/06/03 12:21:42;;;;;;;;;;;;;;;43.76;13.63;102083.66;5057740;28;19921;-59
2023/06/03 12:24:08;;;;;;;;;;;;;;;43.30;13.97;102081.44;5058489;28;20010;-58
2023/06/03 12:26:38;;;;;;;;;;;;;;;43.89;13.60;102077.66;5056275;28;19919;-58
2023/06/03 12:29:08;;;;;;;;;;;;;;;43.50;13.97;102073.50;5057389;28;19913;-56
2023/06/03 12:31:34;;;;;;;;;;;;;;;43.93;14.71;102072.84;5058284;28;19913;-60
2023/06/03 12:34:03;;;;;;;;;;;;;;;43.74;14.00;102076.84;5057906;28;19920;-59
2023/06/03 12:36:48;;;;;;;;;;;;;;;44.22;13.33;102073.72;5055745;28;19912;-58
2023/06/03 12:39:13;;;;;;;;;;;;;;;44.81;12.78;102075.31;5056045;28;19913;-59
2023/06/03 12:41:47;;;;;;;;;;;;;;;45.35;13.00;102085.72;5054146;28;19917;-59
2023/06/03 12:44:13;;;;;;;;;;;;;;;44.81;13.37;102078.13;5055623;28;19943;-61